sensor_id;sensor_type;location;lat;lon;timestamp;P1;durP1;ratioP1;P2;durP2;ratioP2
77769;SDS011;66961;51.482;9.160;2024-03-08T00:01:46;31.43;;;15.93;;
77769;SDS011;66961;51.482;9.160;2024-03-08T00:04:11;29.77;;;16.17;;
77769;SDS011;66961;51.482;9.160;2024-03-08T00:06:36;32.57;;;15.83;;
77769;SDS011;66961;51.482;9.160;2024-03-08T00:09:02;30.57;;;15.63;;
77769;SDS011;66961;51.482;9.160;2024-03-08T00:11:27;32.90;;;16.47;;
77769;SDS011;66961;51.482;9.160;2024-03-08T00:13:52;32.83;;;17.00;;
77769;SDS011;66961;51.482;9.160;2024-03-08T00:16:17;31.47;;;16.43;;
77769;SDS011;66961;51.482;9.160;2024-03-08T00:18:43;31.95;;;16.45;;
77769;SDS011;66961;51.482;9.160;2024-03-08T00:21:08;30.33;;;16.40;;
77769;SDS011;66961;51.482;9.160;2024-03-08T00:23:34;29.42;;;15.35;;
77769;SDS011;66961;51.482;9.160;2024-03-08T00:26:00;31.52;;;17.08;;
77769;SDS011;66961;51.482;9.160;2024-03-08T00:28:25;29.80;;;15.95;;
77769;SDS011;66961;51.482;9.160;2024-03-08T00:30:50;30.03;;;16.03;;
77769;SDS011;66961;51.482;9.160;2024-03-08T00:33:16;32.97;;;16.93;;
77769;SDS011;66961;51.482;9.160;2024-03-08T00:35:41;31.63;;;15.87;;
77769;SDS011;66961;51.482;9.160;2024-03-08T00:38:06;28.33;;;15.37;;
77769;SDS011;66961;51.482;9.160;2024-03-08T00:40:31;28.83;;;15.60;;
77769;SDS011;66961;51.482;9.160;2024-03-08T00:42:57;31.97;;;16.80;;
77769;SDS011;66961;51.482;9.160;2024-03-08T00:45:22;30.23;;;16.07;;
77769;SDS011;66961;51.482;9.160;2024-03-08T00:47:47;30.13;;;15.80;;
77769;SDS011;66961;51.482;9.160;2024-03-08T00:50:12;28.63;;;15.30;;
77769;SDS011;66961;51.482;9.160;2024-03-08T00:52:38;32.03;;;16.70;;
77769;SDS011;66961;51.482;9.160;2024-03-08T00:55:03;29.00;;;15.00;;
77769;SDS011;66961;51.482;9.160;2024-03-08T00:57:29;29.35;;;15.85;;
77769;SDS011;66961;51.482;9.160;2024-03-08T00:59:54;29.83;;;16.00;;
77769;SDS011;66961;51.482;9.160;2024-03-08T01:02:19;32.40;;;16.50;;
77769;SDS011;66961;51.482;9.160;2024-03-08T01:04:45;35.47;;;16.23;;
77769;SDS011;66961;51.482;9.160;2024-03-08T01:07:10;32.17;;;15.93;;
77769;SDS011;66961;51.482;9.160;2024-03-08T01:09:35;32.73;;;16.33;;
77769;SDS011;66961;51.482;9.160;2024-03-08T01:12:00;29.27;;;15.80;;
77769;SDS011;66961;51.482;9.160;2024-03-08T01:14:26;33.50;;;18.10;;
77769;SDS011;66961;51.482;9.160;2024-03-08T01:16:51;34.83;;;17.23;;
77769;SDS011;66961;51.482;9.160;2024-03-08T01:19:16;33.42;;;16.23;;
77769;SDS011;66961;51.482;9.160;2024-03-08T01:21:42;31.67;;;16.48;;
77769;SDS011;66961;51.482;9.160;2024-03-08T01:24:07;31.85;;;16.88;;
77769;SDS011;66961;51.482;9.160;2024-03-08T01:26:33;35.25;;;18.33;;
77769;SDS011;66961;51.482;9.160;2024-03-08T01:28:58;36.42;;;17.50;;
77769;SDS011;66961;51.482;9.160;2024-03-08T01:31:24;37.93;;;17.90;;
77769;SDS011;66961;51.482;9.160;2024-03-08T01:33:49;34.20;;;18.47;;
77769;SDS011;66961;51.482;9.160;2024-03-08T01:36:14;38.70;;;18.10;;
77769;SDS011;66961;51.482;9.160;2024-03-08T01:38:39;33.30;;;16.90;;
77769;SDS011;66961;51.482;9.160;2024-03-08T01:41:05;30.53;;;16.67;;
77769;SDS011;66961;51.482;9.160;2024-03-08T01:43:30;33.67;;;17.40;;
77769;SDS011;66961;51.482;9.160;2024-03-08T01:45:57;34.43;;;17.87;;
77769;SDS011;66961;51.482;9.160;2024-03-08T01:48:22;33.05;;;17.58;;
77769;SDS011;66961;51.482;9.160;2024-03-08T01:50:48;33.88;;;17.48;;
77769;SDS011;66961;51.482;9.160;2024-03-08T01:53:14;33.53;;;17.08;;
77769;SDS011;66961;51.482;9.160;2024-03-08T01:55:39;42.40;;;18.52;;
77769;SDS011;66961;51.482;9.160;2024-03-08T01:58:05;32.17;;;17.42;;
77769;SDS011;66961;51.482;9.160;2024-03-08T02:00:31;34.50;;;17.50;;
77769;SDS011;66961;51.482;9.160;2024-03-08T02:02:58;32.50;;;16.90;;
77769;SDS011;66961;51.482;9.160;2024-03-08T02:05:23;35.17;;;17.77;;
77769;SDS011;66961;51.482;9.160;2024-03-08T02:07:49;29.73;;;15.40;;
77769;SDS011;66961;51.482;9.160;2024-03-08T02:10:14;35.85;;;17.27;;
77769;SDS011;66961;51.482;9.160;2024-03-08T02:12:40;31.00;;;17.02;;
77769;SDS011;66961;51.482;9.160;2024-03-08T02:15:06;29.98;;;15.75;;
77769;SDS011;66961;51.482;9.160;2024-03-08T02:17:32;30.70;;;15.98;;
77769;SDS011;66961;51.482;9.160;2024-03-08T02:19:57;34.58;;;15.73;;
77769;SDS011;66961;51.482;9.160;2024-03-08T02:22:23;31.07;;;16.43;;
77769;SDS011;66961;51.482;9.160;2024-03-08T02:24:48;31.17;;;15.40;;
77769;SDS011;66961;51.482;9.160;2024-03-08T02:27:13;34.90;;;18.00;;
77769;SDS011;66961;51.482;9.160;2024-03-08T02:29:40;31.45;;;15.35;;
77769;SDS011;66961;51.482;9.160;2024-03-08T02:32:07;30.23;;;16.02;;
77769;SDS011;66961;51.482;9.160;2024-03-08T02:34:32;31.63;;;15.50;;
77769;SDS011;66961;51.482;9.160;2024-03-08T02:36:58;32.33;;;16.20;;
77769;SDS011;66961;51.482;9.160;2024-03-08T02:39:23;32.33;;;17.30;;
77769;SDS011;66961;51.482;9.160;2024-03-08T02:41:48;32.83;;;16.77;;
77769;SDS011;66961;51.482;9.160;2024-03-08T02:44:13;32.17;;;16.57;;
77769;SDS011;66961;51.482;9.160;2024-03-08T02:46:38;31.53;;;16.53;;
77769;SDS011;66961;51.482;9.160;2024-03-08T02:49:04;33.63;;;17.87;;
77769;SDS011;66961;51.482;9.160;2024-03-08T02:51:29;35.83;;;18.03;;
77769;SDS011;66961;51.482;9.160;2024-03-08T02:53:54;32.97;;;17.13;;
77769;SDS011;66961;51.482;9.160;2024-03-08T02:56:20;36.47;;;16.97;;
77769;SDS011;66961;51.482;9.160;2024-03-08T02:58:45;33.83;;;17.77;;
77769;SDS011;66961;51.482;9.160;2024-03-08T03:01:10;36.57;;;18.60;;
77769;SDS011;66961;51.482;9.160;2024-03-08T03:03:35;33.60;;;17.83;;
77769;SDS011;66961;51.482;9.160;2024-03-08T03:06:01;38.20;;;18.73;;
77769;SDS011;66961;51.482;9.160;2024-03-08T03:08:26;36.43;;;18.40;;
77769;SDS011;66961;51.482;9.160;2024-03-08T03:10:51;40.13;;;18.33;;
77769;SDS011;66961;51.482;9.160;2024-03-08T03:13:17;36.60;;;19.67;;
77769;SDS011;66961;51.482;9.160;2024-03-08T03:15:42;37.37;;;17.67;;
77769;SDS011;66961;51.482;9.160;2024-03-08T03:18:07;39.57;;;18.57;;
77769;SDS011;66961;51.482;9.160;2024-03-08T03:20:32;39.50;;;17.93;;
77769;SDS011;66961;51.482;9.160;2024-03-08T03:22:58;40.40;;;19.07;;
77769;SDS011;66961;51.482;9.160;2024-03-08T03:25:24;36.72;;;17.95;;
77769;SDS011;66961;51.482;9.160;2024-03-08T03:27:49;37.47;;;18.37;;
77769;SDS011;66961;51.482;9.160;2024-03-08T03:30:14;39.70;;;18.67;;
77769;SDS011;66961;51.482;9.160;2024-03-08T03:32:40;37.28;;;18.35;;
77769;SDS011;66961;51.482;9.160;2024-03-08T03:35:05;40.13;;;18.63;;
77769;SDS011;66961;51.482;9.160;2024-03-08T03:37:31;38.15;;;18.90;;
77769;SDS011;66961;51.482;9.160;2024-03-08T03:39:56;37.17;;;19.03;;
77769;SDS011;66961;51.482;9.160;2024-03-08T03:42:21;37.13;;;18.40;;
77769;SDS011;66961;51.482;9.160;2024-03-08T03:44:47;38.07;;;19.03;;
77769;SDS011;66961;51.482;9.160;2024-03-08T03:47:13;42.25;;;19.08;;
77769;SDS011;66961;51.482;9.160;2024-03-08T03:49:39;37.58;;;18.05;;
77769;SDS011;66961;51.482;9.160;2024-03-08T03:52:04;40.08;;;19.38;;
77769;SDS011;66961;51.482;9.160;2024-03-08T03:54:30;41.33;;;19.05;;
77769;SDS011;66961;51.482;9.160;2024-03-08T03:56:55;38.13;;;19.25;;
77769;SDS011;66961;51.482;9.160;2024-03-08T03:59:21;40.80;;;19.05;;
77769;SDS011;66961;51.482;9.160;2024-03-08T04:01:46;40.22;;;19.60;;
77769;SDS011;66961;51.482;9.160;2024-03-08T04:04:12;39.42;;;18.73;;
77769;SDS011;66961;51.482;9.160;2024-03-08T04:06:37;39.83;;;19.93;;
77769;SDS011;66961;51.482;9.160;2024-03-08T04:09:02;39.53;;;19.63;;
77769;SDS011;66961;51.482;9.160;2024-03-08T04:11:28;39.15;;;18.63;;
77769;SDS011;66961;51.482;9.160;2024-03-08T04:13:53;37.23;;;18.07;;
77769;SDS011;66961;51.482;9.160;2024-03-08T04:16:18;40.00;;;19.67;;
77769;SDS011;66961;51.482;9.160;2024-03-08T04:18:43;43.07;;;19.57;;
77769;SDS011;66961;51.482;9.160;2024-03-08T04:21:09;42.20;;;20.43;;
77769;SDS011;66961;51.482;9.160;2024-03-08T04:23:34;40.97;;;19.90;;
77769;SDS011;66961;51.482;9.160;2024-03-08T04:25:59;44.15;;;20.30;;
77769;SDS011;66961;51.482;9.160;2024-03-08T04:28:25;39.67;;;20.00;;
77769;SDS011;66961;51.482;9.160;2024-03-08T04:30:50;38.70;;;18.27;;
77769;SDS011;66961;51.482;9.160;2024-03-08T04:33:15;38.73;;;18.87;;
77769;SDS011;66961;51.482;9.160;2024-03-08T04:35:40;37.47;;;18.70;;
77769;SDS011;66961;51.482;9.160;2024-03-08T04:38:05;42.27;;;19.73;;
77769;SDS011;66961;51.482;9.160;2024-03-08T04:40:31;42.80;;;20.63;;
77769;SDS011;66961;51.482;9.160;2024-03-08T04:42:56;41.90;;;19.53;;
77769;SDS011;66961;51.482;9.160;2024-03-08T04:45:24;38.05;;;18.10;;
77769;SDS011;66961;51.482;9.160;2024-03-08T04:47:49;38.30;;;18.90;;
77769;SDS011;66961;51.482;9.160;2024-03-08T04:50:14;40.70;;;18.63;;
77769;SDS011;66961;51.482;9.160;2024-03-08T04:52:40;43.00;;;20.43;;
77769;SDS011;66961;51.482;9.160;2024-03-08T04:55:05;43.40;;;20.03;;
77769;SDS011;66961;51.482;9.160;2024-03-08T04:57:31;43.70;;;19.60;;
77769;SDS011;66961;51.482;9.160;2024-03-08T04:59:56;40.63;;;20.60;;
77769;SDS011;66961;51.482;9.160;2024-03-08T05:02:21;50.37;;;25.03;;
77769;SDS011;66961;51.482;9.160;2024-03-08T05:04:46;50.17;;;24.40;;
77769;SDS011;66961;51.482;9.160;2024-03-08T05:07:12;50.40;;;25.73;;
77769;SDS011;66961;51.482;9.160;2024-03-08T05:09:37;53.63;;;25.47;;
77769;SDS011;66961;51.482;9.160;2024-03-08T05:12:02;53.33;;;23.70;;
77769;SDS011;66961;51.482;9.160;2024-03-08T05:14:28;57.28;;;26.40;;
77769;SDS011;66961;51.482;9.160;2024-03-08T05:16:53;41.37;;;19.50;;
77769;SDS011;66961;51.482;9.160;2024-03-08T05:19:19;54.13;;;27.23;;
77769;SDS011;66961;51.482;9.160;2024-03-08T05:21:48;55.05;;;26.27;;
77769;SDS011;66961;51.482;9.160;2024-03-08T05:24:14;65.38;;;34.38;;
77769;SDS011;66961;51.482;9.160;2024-03-08T05:26:40;58.42;;;27.65;;
77769;SDS011;66961;51.482;9.160;2024-03-08T05:29:06;53.00;;;27.48;;
77769;SDS011;66961;51.482;9.160;2024-03-08T05:31:35;72.93;;;37.43;;
77769;SDS011;66961;51.482;9.160;2024-03-08T05:34:11;41.42;;;21.85;;
77769;SDS011;66961;51.482;9.160;2024-03-08T05:36:37;43.45;;;19.95;;
77769;SDS011;66961;51.482;9.160;2024-03-08T05:39:02;37.97;;;19.13;;
77769;SDS011;66961;51.482;9.160;2024-03-08T05:41:27;38.22;;;20.27;;
77769;SDS011;66961;51.482;9.160;2024-03-08T05:43:53;46.30;;;22.47;;
77769;SDS011;66961;51.482;9.160;2024-03-08T05:46:18;45.03;;;20.53;;
77769;SDS011;66961;51.482;9.160;2024-03-08T05:48:43;45.30;;;21.43;;
77769;SDS011;66961;51.482;9.160;2024-03-08T05:51:09;43.88;;;20.67;;
77769;SDS011;66961;51.482;9.160;2024-03-08T05:53:34;54.90;;;28.60;;
77769;SDS011;66961;51.482;9.160;2024-03-08T05:55:59;53.63;;;26.23;;
77769;SDS011;66961;51.482;9.160;2024-03-08T05:58:24;46.13;;;21.47;;
77769;SDS011;66961;51.482;9.160;2024-03-08T06:00:50;51.83;;;25.33;;
77769;SDS011;66961;51.482;9.160;2024-03-08T06:03:15;47.33;;;24.17;;
77769;SDS011;66961;51.482;9.160;2024-03-08T06:05:40;44.47;;;21.97;;
77769;SDS011;66961;51.482;9.160;2024-03-08T06:08:05;41.33;;;20.87;;
77769;SDS011;66961;51.482;9.160;2024-03-08T06:10:31;42.33;;;20.90;;
77769;SDS011;66961;51.482;9.160;2024-03-08T06:12:56;44.03;;;21.27;;
77769;SDS011;66961;51.482;9.160;2024-03-08T06:15:21;39.00;;;18.87;;
77769;SDS011;66961;51.482;9.160;2024-03-08T06:17:47;45.53;;;21.80;;
77769;SDS011;66961;51.482;9.160;2024-03-08T06:20:12;47.10;;;22.30;;
77769;SDS011;66961;51.482;9.160;2024-03-08T06:22:38;43.05;;;19.70;;
77769;SDS011;66961;51.482;9.160;2024-03-08T06:25:10;39.80;;;19.95;;
77769;SDS011;66961;51.482;9.160;2024-03-08T06:27:36;45.90;;;20.98;;
77769;SDS011;66961;51.482;9.160;2024-03-08T06:30:01;40.40;;;18.87;;
77769;SDS011;66961;51.482;9.160;2024-03-08T06:32:27;43.53;;;19.80;;
77769;SDS011;66961;51.482;9.160;2024-03-08T06:34:52;42.07;;;21.60;;
77769;SDS011;66961;51.482;9.160;2024-03-08T06:37:17;44.83;;;20.90;;
77769;SDS011;66961;51.482;9.160;2024-03-08T06:39:42;40.87;;;20.37;;
77769;SDS011;66961;51.482;9.160;2024-03-08T06:42:08;41.37;;;20.33;;
77769;SDS011;66961;51.482;9.160;2024-03-08T06:44:33;41.37;;;20.20;;
77769;SDS011;66961;51.482;9.160;2024-03-08T06:46:58;43.20;;;21.43;;
77769;SDS011;66961;51.482;9.160;2024-03-08T06:49:23;39.77;;;18.67;;
77769;SDS011;66961;51.482;9.160;2024-03-08T06:51:49;42.33;;;21.23;;
77769;SDS011;66961;51.482;9.160;2024-03-08T06:54:14;42.03;;;20.00;;
77769;SDS011;66961;51.482;9.160;2024-03-08T06:56:39;42.37;;;21.27;;
77769;SDS011;66961;51.482;9.160;2024-03-08T06:59:04;41.97;;;19.37;;
77769;SDS011;66961;51.482;9.160;2024-03-08T07:01:30;39.00;;;20.73;;
77769;SDS011;66961;51.482;9.160;2024-03-08T07:03:55;37.37;;;17.93;;
77769;SDS011;66961;51.482;9.160;2024-03-08T07:06:20;42.30;;;19.93;;
77769;SDS011;66961;51.482;9.160;2024-03-08T07:08:45;41.10;;;19.63;;
77769;SDS011;66961;51.482;9.160;2024-03-08T07:11:11;37.92;;;19.10;;
77769;SDS011;66961;51.482;9.160;2024-03-08T07:13:36;44.03;;;19.63;;
77769;SDS011;66961;51.482;9.160;2024-03-08T07:16:02;38.97;;;19.30;;
77769;SDS011;66961;51.482;9.160;2024-03-08T07:18:27;42.63;;;20.55;;
77769;SDS011;66961;51.482;9.160;2024-03-08T07:20:54;38.75;;;20.90;;
77769;SDS011;66961;51.482;9.160;2024-03-08T07:23:19;39.00;;;18.43;;
77769;SDS011;66961;51.482;9.160;2024-03-08T07:25:44;36.67;;;19.30;;
77769;SDS011;66961;51.482;9.160;2024-03-08T07:28:10;45.63;;;21.10;;
77769;SDS011;66961;51.482;9.160;2024-03-08T07:30:35;41.07;;;20.40;;
77769;SDS011;66961;51.482;9.160;2024-03-08T07:33:00;36.93;;;19.00;;
77769;SDS011;66961;51.482;9.160;2024-03-08T07:35:25;35.03;;;18.83;;
77769;SDS011;66961;51.482;9.160;2024-03-08T07:37:51;39.67;;;19.83;;
77769;SDS011;66961;51.482;9.160;2024-03-08T07:40:16;37.47;;;18.27;;
77769;SDS011;66961;51.482;9.160;2024-03-08T07:42:41;36.17;;;19.23;;
77769;SDS011;66961;51.482;9.160;2024-03-08T07:45:07;36.93;;;18.80;;
77769;SDS011;66961;51.482;9.160;2024-03-08T07:47:32;36.97;;;19.83;;
77769;SDS011;66961;51.482;9.160;2024-03-08T07:49:58;35.53;;;18.37;;
77769;SDS011;66961;51.482;9.160;2024-03-08T07:52:23;36.33;;;18.77;;
77769;SDS011;66961;51.482;9.160;2024-03-08T07:54:48;35.50;;;19.07;;
77769;SDS011;66961;51.482;9.160;2024-03-08T07:57:13;39.73;;;19.43;;
77769;SDS011;66961;51.482;9.160;2024-03-08T07:59:39;35.00;;;19.30;;
77769;SDS011;66961;51.482;9.160;2024-03-08T08:02:04;40.00;;;18.23;;
77769;SDS011;66961;51.482;9.160;2024-03-08T08:04:30;39.08;;;20.23;;
77769;SDS011;66961;51.482;9.160;2024-03-08T08:06:55;35.53;;;19.50;;
77769;SDS011;66961;51.482;9.160;2024-03-08T08:09:20;38.83;;;19.73;;
77769;SDS011;66961;51.482;9.160;2024-03-08T08:11:46;34.93;;;17.67;;
77769;SDS011;66961;51.482;9.160;2024-03-08T08:14:11;33.53;;;18.20;;
77769;SDS011;66961;51.482;9.160;2024-03-08T08:16:36;36.13;;;18.87;;
77769;SDS011;66961;51.482;9.160;2024-03-08T08:19:02;35.50;;;17.92;;
77769;SDS011;66961;51.482;9.160;2024-03-08T08:21:28;40.65;;;19.65;;
77769;SDS011;66961;51.482;9.160;2024-03-08T08:23:53;30.77;;;15.20;;
77769;SDS011;66961;51.482;9.160;2024-03-08T08:26:18;33.57;;;17.60;;
77769;SDS011;66961;51.482;9.160;2024-03-08T08:28:44;37.13;;;19.50;;
77769;SDS011;66961;51.482;9.160;2024-03-08T08:31:09;31.60;;;15.80;;
77769;SDS011;66961;51.482;9.160;2024-03-08T08:33:34;33.33;;;17.17;;
77769;SDS011;66961;51.482;9.160;2024-03-08T08:35:59;34.20;;;17.77;;
77769;SDS011;66961;51.482;9.160;2024-03-08T08:38:25;33.83;;;17.70;;
77769;SDS011;66961;51.482;9.160;2024-03-08T08:40:50;36.07;;;18.37;;
77769;SDS011;66961;51.482;9.160;2024-03-08T08:43:15;35.37;;;18.77;;
77769;SDS011;66961;51.482;9.160;2024-03-08T08:45:40;31.53;;;17.10;;
77769;SDS011;66961;51.482;9.160;2024-03-08T08:48:06;30.20;;;16.60;;
77769;SDS011;66961;51.482;9.160;2024-03-08T08:50:31;38.58;;;18.35;;
77769;SDS011;66961;51.482;9.160;2024-03-08T08:52:56;36.25;;;17.60;;
77769;SDS011;66961;51.482;9.160;2024-03-08T08:55:22;30.50;;;16.17;;
77769;SDS011;66961;51.482;9.160;2024-03-08T08:57:47;30.83;;;15.63;;
77769;SDS011;66961;51.482;9.160;2024-03-08T09:00:13;36.60;;;17.63;;
77769;SDS011;66961;51.482;9.160;2024-03-08T09:02:38;34.20;;;17.90;;
77769;SDS011;66961;51.482;9.160;2024-03-08T09:05:04;30.20;;;16.73;;
77769;SDS011;66961;51.482;9.160;2024-03-08T09:07:29;30.83;;;15.07;;
77769;SDS011;66961;51.482;9.160;2024-03-08T09:09:55;35.30;;;18.23;;
77769;SDS011;66961;51.482;9.160;2024-03-08T09:12:20;26.90;;;14.73;;
77769;SDS011;66961;51.482;9.160;2024-03-08T09:14:45;32.87;;;16.47;;
77769;SDS011;66961;51.482;9.160;2024-03-08T09:17:10;33.30;;;17.73;;
77769;SDS011;66961;51.482;9.160;2024-03-08T09:19:36;33.20;;;18.33;;
77769;SDS011;66961;51.482;9.160;2024-03-08T09:22:01;32.83;;;17.37;;
77769;SDS011;66961;51.482;9.160;2024-03-08T09:24:26;33.20;;;16.63;;
77769;SDS011;66961;51.482;9.160;2024-03-08T09:26:51;30.77;;;16.97;;
77769;SDS011;66961;51.482;9.160;2024-03-08T09:29:17;30.70;;;17.13;;
77769;SDS011;66961;51.482;9.160;2024-03-08T09:31:42;36.70;;;17.85;;
77769;SDS011;66961;51.482;9.160;2024-03-08T09:34:07;30.97;;;17.23;;
77769;SDS011;66961;51.482;9.160;2024-03-08T09:36:33;33.63;;;17.27;;
77769;SDS011;66961;51.482;9.160;2024-03-08T09:38:58;29.63;;;16.23;;
77769;SDS011;66961;51.482;9.160;2024-03-08T09:41:23;30.23;;;16.93;;
77769;SDS011;66961;51.482;9.160;2024-03-08T09:43:48;30.70;;;15.50;;
77769;SDS011;66961;51.482;9.160;2024-03-08T09:46:14;26.23;;;14.90;;
77769;SDS011;66961;51.482;9.160;2024-03-08T09:48:40;28.08;;;15.63;;
77769;SDS011;66961;51.482;9.160;2024-03-08T09:51:05;33.63;;;17.05;;
77769;SDS011;66961;51.482;9.160;2024-03-08T09:53:31;32.35;;;17.35;;
77769;SDS011;66961;51.482;9.160;2024-03-08T09:55:56;28.63;;;15.93;;
77769;SDS011;66961;51.482;9.160;2024-03-08T09:58:22;31.05;;;17.02;;
77769;SDS011;66961;51.482;9.160;2024-03-08T10:00:47;31.13;;;16.40;;
77769;SDS011;66961;51.482;9.160;2024-03-08T10:03:12;29.40;;;16.35;;
77769;SDS011;66961;51.482;9.160;2024-03-08T10:05:38;26.98;;;15.50;;
77769;SDS011;66961;51.482;9.160;2024-03-08T10:08:04;28.25;;;15.25;;
77769;SDS011;66961;51.482;9.160;2024-03-08T10:10:29;29.05;;;16.83;;
77769;SDS011;66961;51.482;9.160;2024-03-08T10:12:55;26.27;;;15.48;;
77769;SDS011;66961;51.482;9.160;2024-03-08T10:15:20;27.73;;;16.45;;
77769;SDS011;66961;51.482;9.160;2024-03-08T10:17:46;28.13;;;16.13;;
77769;SDS011;66961;51.482;9.160;2024-03-08T10:20:14;26.10;;;14.40;;
77769;SDS011;66961;51.482;9.160;2024-03-08T10:22:43;28.50;;;15.35;;
77769;SDS011;66961;51.482;9.160;2024-03-08T10:25:09;25.55;;;14.90;;
77769;SDS011;66961;51.482;9.160;2024-03-08T10:27:35;24.35;;;15.32;;
77769;SDS011;66961;51.482;9.160;2024-03-08T10:30:01;26.10;;;15.30;;
77769;SDS011;66961;51.482;9.160;2024-03-08T10:32:27;25.00;;;14.43;;
77769;SDS011;66961;51.482;9.160;2024-03-08T10:34:52;24.35;;;14.10;;
77769;SDS011;66961;51.482;9.160;2024-03-08T10:37:18;23.75;;;14.05;;
77769;SDS011;66961;51.482;9.160;2024-03-08T10:39:48;23.35;;;13.60;;
77769;SDS011;66961;51.482;9.160;2024-03-08T10:42:28;25.52;;;13.30;;
77769;SDS011;66961;51.482;9.160;2024-03-08T10:44:59;25.52;;;13.68;;
77769;SDS011;66961;51.482;9.160;2024-03-08T10:47:32;28.23;;;14.93;;
77769;SDS011;66961;51.482;9.160;2024-03-08T10:50:11;24.50;;;13.63;;
77769;SDS011;66961;51.482;9.160;2024-03-08T10:52:43;23.20;;;12.77;;
77769;SDS011;66961;51.482;9.160;2024-03-08T10:55:09;25.10;;;13.52;;
77769;SDS011;66961;51.482;9.160;2024-03-08T10:57:35;22.45;;;12.90;;
77769;SDS011;66961;51.482;9.160;2024-03-08T11:00:01;22.80;;;13.85;;
77769;SDS011;66961;51.482;9.160;2024-03-08T11:02:27;24.67;;;13.48;;
77769;SDS011;66961;51.482;9.160;2024-03-08T11:04:52;23.57;;;12.80;;
77769;SDS011;66961;51.482;9.160;2024-03-08T11:07:17;23.50;;;12.57;;
77769;SDS011;66961;51.482;9.160;2024-03-08T11:09:44;25.23;;;14.20;;
77769;SDS011;66961;51.482;9.160;2024-03-08T11:12:25;23.48;;;13.95;;
77769;SDS011;66961;51.482;9.160;2024-03-08T11:14:53;21.05;;;12.43;;
77769;SDS011;66961;51.482;9.160;2024-03-08T11:17:25;22.02;;;12.68;;
77769;SDS011;66961;51.482;9.160;2024-03-08T11:19:57;22.27;;;11.60;;
77769;SDS011;66961;51.482;9.160;2024-03-08T11:22:27;24.55;;;14.05;;
77769;SDS011;66961;51.482;9.160;2024-03-08T11:24:57;21.65;;;13.05;;
77769;SDS011;66961;51.482;9.160;2024-03-08T11:27:28;24.17;;;13.93;;
77769;SDS011;66961;51.482;9.160;2024-03-08T11:29:59;19.33;;;11.43;;
77769;SDS011;66961;51.482;9.160;2024-03-08T11:32:29;22.25;;;12.65;;
77769;SDS011;66961;51.482;9.160;2024-03-08T11:34:54;22.92;;;12.48;;
77769;SDS011;66961;51.482;9.160;2024-03-08T11:37:20;21.27;;;12.45;;
77769;SDS011;66961;51.482;9.160;2024-03-08T11:39:52;18.00;;;11.10;;
77769;SDS011;66961;51.482;9.160;2024-03-08T11:42:19;23.85;;;12.98;;
77769;SDS011;66961;51.482;9.160;2024-03-08T11:44:45;20.27;;;11.50;;
77769;SDS011;66961;51.482;9.160;2024-03-08T11:47:11;21.05;;;12.82;;
77769;SDS011;66961;51.482;9.160;2024-03-08T11:49:37;24.15;;;14.48;;
77769;SDS011;66961;51.482;9.160;2024-03-08T11:52:03;18.88;;;11.40;;
77769;SDS011;66961;51.482;9.160;2024-03-08T11:54:28;24.63;;;13.60;;
77769;SDS011;66961;51.482;9.160;2024-03-08T11:56:54;25.05;;;14.20;;
77769;SDS011;66961;51.482;9.160;2024-03-08T11:59:19;23.27;;;13.55;;
77769;SDS011;66961;51.482;9.160;2024-03-08T12:01:56;25.60;;;13.00;;
77769;SDS011;66961;51.482;9.160;2024-03-08T12:04:31;22.50;;;13.70;;
77769;SDS011;66961;51.482;9.160;2024-03-08T12:07:00;22.88;;;13.18;;
77769;SDS011;66961;51.482;9.160;2024-03-08T12:09:25;26.20;;;14.02;;
77769;SDS011;66961;51.482;9.160;2024-03-08T12:11:50;25.20;;;15.27;;
77769;SDS011;66961;51.482;9.160;2024-03-08T12:14:16;24.60;;;14.93;;
77769;SDS011;66961;51.482;9.160;2024-03-08T12:16:42;26.83;;;15.65;;
77769;SDS011;66961;51.482;9.160;2024-03-08T12:19:07;26.37;;;14.40;;
77769;SDS011;66961;51.482;9.160;2024-03-08T12:21:33;21.55;;;12.90;;
77769;SDS011;66961;51.482;9.160;2024-03-08T12:24:05;25.23;;;16.07;;
77769;SDS011;66961;51.482;9.160;2024-03-08T12:26:32;21.25;;;13.90;;
77769;SDS011;66961;51.482;9.160;2024-03-08T12:31:51;24.80;;;14.27;;
77769;SDS011;66961;51.482;9.160;2024-03-08T12:34:18;25.30;;;15.05;;
77769;SDS011;66961;51.482;9.160;2024-03-08T12:36:44;25.25;;;15.60;;
77769;SDS011;66961;51.482;9.160;2024-03-08T12:39:15;24.23;;;15.00;;
77769;SDS011;66961;51.482;9.160;2024-03-08T12:41:41;23.42;;;13.32;;
77769;SDS011;66961;51.482;9.160;2024-03-08T12:44:06;24.75;;;15.00;;
77769;SDS011;66961;51.482;9.160;2024-03-08T12:46:32;21.92;;;13.10;;
77769;SDS011;66961;51.482;9.160;2024-03-08T12:48:57;20.90;;;13.50;;
77769;SDS011;66961;51.482;9.160;2024-03-08T12:51:22;21.95;;;14.23;;
77769;SDS011;66961;51.482;9.160;2024-03-08T12:53:48;24.23;;;14.20;;
77769;SDS011;66961;51.482;9.160;2024-03-08T12:56:15;21.37;;;12.97;;
77769;SDS011;66961;51.482;9.160;2024-03-08T12:58:53;23.83;;;14.45;;
77769;SDS011;66961;51.482;9.160;2024-03-08T13:01:18;25.57;;;13.97;;
77769;SDS011;66961;51.482;9.160;2024-03-08T13:03:43;24.97;;;14.27;;
77769;SDS011;66961;51.482;9.160;2024-03-08T13:06:09;27.67;;;16.30;;
77769;SDS011;66961;51.482;9.160;2024-03-08T13:08:37;25.87;;;15.37;;
77769;SDS011;66961;51.482;9.160;2024-03-08T13:11:03;24.00;;;14.73;;
77769;SDS011;66961;51.482;9.160;2024-03-08T13:13:28;22.55;;;14.45;;
77769;SDS011;66961;51.482;9.160;2024-03-08T13:15:54;23.90;;;14.48;;
77769;SDS011;66961;51.482;9.160;2024-03-08T13:18:19;24.33;;;16.17;;
77769;SDS011;66961;51.482;9.160;2024-03-08T13:20:44;23.70;;;15.07;;
77769;SDS011;66961;51.482;9.160;2024-03-08T13:23:10;25.70;;;15.70;;
77769;SDS011;66961;51.482;9.160;2024-03-08T13:25:35;23.13;;;14.53;;
77769;SDS011;66961;51.482;9.160;2024-03-08T13:28:00;25.83;;;15.38;;
77769;SDS011;66961;51.482;9.160;2024-03-08T13:30:26;23.20;;;14.55;;
77769;SDS011;66961;51.482;9.160;2024-03-08T13:32:51;23.98;;;14.93;;
77769;SDS011;66961;51.482;9.160;2024-03-08T13:35:17;25.27;;;14.98;;
77769;SDS011;66961;51.482;9.160;2024-03-08T13:37:42;22.67;;;14.77;;
77769;SDS011;66961;51.482;9.160;2024-03-08T13:40:09;23.25;;;15.02;;
77769;SDS011;66961;51.482;9.160;2024-03-08T13:42:34;23.85;;;16.00;;
77769;SDS011;66961;51.482;9.160;2024-03-08T13:45:00;23.57;;;15.17;;
77769;SDS011;66961;51.482;9.160;2024-03-08T13:47:25;23.30;;;14.57;;
77769;SDS011;66961;51.482;9.160;2024-03-08T13:49:50;27.47;;;18.07;;
77769;SDS011;66961;51.482;9.160;2024-03-08T13:52:16;22.13;;;14.73;;
77769;SDS011;66961;51.482;9.160;2024-03-08T13:54:41;23.80;;;15.20;;
77769;SDS011;66961;51.482;9.160;2024-03-08T13:57:06;24.17;;;15.63;;
77769;SDS011;66961;51.482;9.160;2024-03-08T13:59:32;24.88;;;15.73;;
77769;SDS011;66961;51.482;9.160;2024-03-08T14:01:57;22.38;;;15.38;;
77769;SDS011;66961;51.482;9.160;2024-03-08T14:04:23;25.02;;;16.50;;
77769;SDS011;66961;51.482;9.160;2024-03-08T14:06:48;23.63;;;14.63;;
77769;SDS011;66961;51.482;9.160;2024-03-08T14:09:13;24.17;;;15.53;;
77769;SDS011;66961;51.482;9.160;2024-03-08T14:11:38;23.43;;;14.93;;
77769;SDS011;66961;51.482;9.160;2024-03-08T14:14:04;25.00;;;15.43;;
77769;SDS011;66961;51.482;9.160;2024-03-08T14:16:29;26.87;;;17.10;;